Time;durP1;ratioP1;P1;durP2;ratioP2;P2;SDS_P1;SDS_P2;PMS_P1;PMS_P2;Temp;Humidity;BMP_temperature;BMP_pressure;BME280_temperature;BME280_humidity;BME280_pressure;Samples;Min_cycle;Max_cycle;Signal;HPM_P1;HPM_P2
2022/12/23 00:00:18;;;;;;;190.57;51.03;;;7.70;95.40;;;;;;5128126;27;20777;-90
2022/12/23 00:02:44;;;;;;;206.25;53.92;;;7.70;95.40;;;;;;5109759;27;20417;-91
2022/12/23 00:05:10;;;;;;;225.38;54.85;;;7.70;95.40;;;;;;5111146;27;20435;-91
2022/12/23 00:07:36;;;;;;;269.70;55.40;;;7.70;95.40;;;;;;5109302;27;20402;-91
2022/12/23 00:10:02;;;;;;;319.67;54.93;;;7.80;95.40;;;;;;5110914;27;20969;-91
2022/12/23 00:15:12;;;;;;;207.15;51.40;;;7.70;95.40;;;;;;5128932;27;20964;-89
2022/12/23 00:17:43;;;;;;;224.37;51.97;;;7.70;95.50;;;;;;5111191;27;20502;-91
2022/12/23 00:20:11;;;;;;;258.17;53.80;;;7.70;95.60;;;;;;5110744;27;20411;-92
2022/12/23 00:25:39;;;;;;;220.52;53.33;;;7.70;95.50;;;;;;5127312;27;20407;-90
2022/12/23 00:28:15;;;;;;;198.32;52.63;;;7.80;95.50;;;;;;5128684;27;20487;-90
2022/12/23 00:30:48;;;;;;;169.45;50.85;;;7.70;95.50;;;;;;5129566;27;20515;-90
2022/12/23 00:33:19;;;;;;;187.45;54.08;;;7.70;95.50;;;;;;5109984;27;20433;-91
2022/12/23 00:35:45;;;;;;;198.50;54.63;;;7.80;95.40;;;;;;5126305;27;20395;-90
2022/12/23 00:38:11;;;;;;;252.93;57.92;;;7.80;95.30;;;;;;5090126;28;20404;-90
2022/12/23 00:43:24;;;;;;;237.23;54.53;;;7.80;95.30;;;;;;5107060;28;20401;-90
2022/12/23 00:45:50;;;;;;;145.90;46.45;;;7.80;95.20;;;;;;5090232;28;20419;-90
2022/12/23 00:50:59;;;;;;;206.32;54.05;;;7.70;95.30;;;;;;5106278;28;20443;-88
2022/12/23 00:53:25;;;;;;;235.43;52.90;;;7.80;95.40;;;;;;5107601;28;20467;-90
2022/12/23 00:55:51;;;;;;;263.52;55.55;;;7.80;95.40;;;;;;5088970;28;21074;-90
2022/12/23 00:58:18;;;;;;;228.77;52.00;;;7.80;95.30;;;;;;5107740;28;20404;-89
2022/12/23 01:06:14;;;;;;;189.40;49.78;;;7.80;95.30;;;;;;5107918;28;20432;-90
2022/12/23 01:08:40;;;;;;;187.25;51.00;;;7.80;95.30;;;;;;5089288;28;20401;-89
2022/12/23 01:11:09;;;;;;;371.90;56.90;;;7.80;95.30;;;;;;5090560;28;20404;-90
2022/12/23 01:13:35;;;;;;;156.80;48.27;;;7.90;95.30;;;;;;5106858;28;20622;-89
2022/12/23 01:16:07;;;;;;;235.23;50.93;;;8.00;95.30;;;;;;5090387;28;20763;-90
2022/12/23 01:18:34;;;;;;;190.38;47.70;;;7.80;95.30;;;;;;5090835;28;20483;-90
2022/12/23 01:21:01;;;;;;;187.40;49.15;;;7.80;95.20;;;;;;5106108;28;20411;-91
2022/12/23 01:23:27;;;;;;;250.10;51.78;;;7.60;95.20;;;;;;5107795;28;20400;-90
2022/12/23 01:25:58;;;;;;;290.77;52.13;;;8.00;95.30;;;;;;5088453;28;20442;-90
2022/12/23 01:28:24;;;;;;;351.23;54.85;;;7.80;95.30;;;;;;5090579;28;20400;-90
2022/12/23 01:30:49;;;;;;;380.00;56.42;;;7.70;95.30;;;;;;5106571;28;20408;-90
2022/12/23 01:33:15;;;;;;;313.73;55.03;;;7.70;95.40;;;;;;5089408;28;20469;-90
2022/12/23 01:35:41;;;;;;;346.30;56.40;;;7.70;95.50;;;;;;5107836;28;20408;-89
2022/12/23 01:38:07;;;;;;;339.17;59.33;;;7.70;95.60;;;;;;5106020;28;20399;-90
2022/12/23 01:40:38;;;;;;;354.00;59.20;;;7.70;95.60;;;;;;5107514;28;20404;-90
2022/12/23 01:43:04;;;;;;;326.15;61.90;;;7.70;95.70;;;;;;5105683;28;20420;-89
2022/12/23 01:45:31;;;;;;;339.87;63.13;;;7.60;95.70;;;;;;5090686;28;20408;-90
2022/12/23 01:48:14;;;;;;;445.88;68.20;;;7.60;95.70;;;;;;5089414;28;20404;-89
2022/12/23 01:51:05;;;;;;;318.45;61.83;;;7.60;95.80;;;;;;5106487;28;20491;-90
2022/12/23 01:53:35;;;;;;;332.90;63.20;;;7.60;95.80;;;;;;5090205;28;20569;-90
2022/12/23 01:56:04;;;;;;;261.25;59.40;;;7.70;95.80;;;;;;5088180;28;20392;-92
2022/12/23 01:58:37;;;;;;;376.17;62.50;;;7.70;95.80;;;;;;5090895;28;20392;-89
2022/12/23 02:03:53;;;;;;;251.23;54.67;;;7.60;95.80;;;;;;5105028;28;20421;-91
2022/12/23 02:09:22;;;;;;;256.02;54.67;;;7.70;95.80;;;;;;5104247;28;20400;-90
2022/12/23 02:12:20;;;;;;;263.50;56.20;;;7.70;95.70;;;;;;5088597;28;20891;-91
2022/12/23 02:18:22;;;;;;;272.63;56.72;;;7.70;95.70;;;;;;5104793;28;20408;-90
2022/12/23 02:21:12;;;;;;;334.92;55.63;;;7.70;95.60;;;;;;5105920;28;20477;-90
2022/12/23 02:23:43;;;;;;;487.33;58.80;;;7.80;95.60;;;;;;5105770;28;20404;-89
2022/12/23 02:26:21;;;;;;;445.75;59.42;;;7.80;95.50;;;;;;5086900;28;20466;-91
2022/12/23 02:29:12;;;;;;;286.55;50.85;;;7.80;95.50;;;;;;5089879;28;20466;-90
2022/12/23 02:31:49;;;;;;;222.63;49.95;;;7.70;95.40;;;;;;5088060;28;20408;-90
2022/12/23 02:34:25;;;;;;;235.63;51.65;;;7.70;95.40;;;;;;5104293;28;20449;-89
2022/12/23 02:37:13;;;;;;;420.35;61.15;;;7.70;95.50;;;;;;5090328;28;20434;-89
2022/12/23 02:39:50;;;;;;;269.48;53.50;;;7.60;95.50;;;;;;5092616;28;20408;-89
2022/12/23 02:42:19;;;;;;;207.55;50.60;;;7.70;95.60;;;;;;5110581;28;20618;-90
2022/12/23 02:44:53;;;;;;;266.08;52.72;;;7.70;95.60;;;;;;5110619;28;20404;-89
2022/12/23 02:47:33;;;;;;;257.10;52.03;;;7.70;95.50;;;;;;5092013;28;20466;-90
2022/12/23 02:50:07;;;;;;;236.00;50.40;;;7.70;95.50;;;;;;5087517;28;20538;-90
2022/12/23 02:52:36;;;;;;;256.48;51.20;;;7.70;95.40;;;;;;5091535;28;20404;-88
2022/12/23 02:55:19;;;;;;;224.83;46.70;;;7.80;95.30;;;;;;5110449;28;20582;-90
2022/12/23 02:57:49;;;;;;;265.27;46.95;;;7.70;95.20;;;;;;5105686;28;20409;-90
2022/12/23 03:00:16;;;;;;;148.35;43.28;;;7.70;95.20;;;;;;5091197;28;20755;-89
2022/12/23 03:02:42;;;;;;;201.95;45.85;;;7.70;95.30;;;;;;5092942;28;20823;-90
2022/12/23 03:05:31;;;;;;;203.88;45.47;;;7.60;95.20;;;;;;5091726;28;20452;-89
2022/12/23 03:08:01;;;;;;;246.07;49.22;;;7.60;95.40;;;;;;5093034;28;20408;-90
2022/12/23 03:11:09;;;;;;;260.70;48.80;;;7.70;95.40;;;;;;5109150;28;20850;-89
2022/12/23 03:14:02;;;;;;;511.43;55.07;;;7.70;95.40;;;;;;5102995;28;20511;-90
2022/12/23 03:16:36;;;;;;;201.80;45.40;;;7.70;95.40;;;;;;5110421;28;20408;-90
2022/12/23 03:19:46;;;;;;;351.02;50.55;;;7.60;95.40;;;;;;5091996;28;20408;-90
2022/12/23 03:22:29;;;;;;;214.40;45.35;;;7.60;95.40;;;;;;5104199;28;20408;-90
2022/12/23 03:25:02;;;;;;;407.17;53.07;;;7.60;95.40;;;;;;5109921;28;20409;-89
2022/12/23 03:27:33;;;;;;;224.55;46.35;;;7.60;95.40;;;;;;5091454;28;20416;-89
2022/12/23 03:30:13;;;;;;;246.10;46.42;;;7.60;95.50;;;;;;5108906;28;20450;-89
2022/12/23 03:32:47;;;;;;;226.73;44.20;;;7.60;95.50;;;;;;5092313;28;20420;-90
2022/12/23 03:35:18;;;;;;;224.93;44.93;;;7.50;95.50;;;;;;5088134;28;20408;-90
2022/12/23 03:37:47;;;;;;;217.77;43.90;;;7.50;95.50;;;;;;5092289;28;20409;-88
2022/12/23 03:40:41;;;;;;;175.80;42.17;;;7.50;95.50;;;;;;5090748;28;20898;-90
2022/12/23 03:43:15;;;;;;;186.98;42.20;;;7.40;95.40;;;;;;5077624;28;20413;-90
2022/12/23 03:45:48;;;;;;;174.30;40.97;;;7.40;95.30;;;;;;5092134;28;20411;-90
2022/12/23 03:48:28;;;;;;;249.17;43.10;;;7.40;95.30;;;;;;5090441;28;20558;-89
2022/12/23 03:50:58;;;;;;;221.30;44.20;;;7.40;95.30;;;;;;5109272;28;20400;-89
2022/12/23 03:53:31;;;;;;;178.30;40.00;;;7.50;95.30;;;;;;5107172;28;20546;-89
2022/12/23 03:56:39;;;;;;;178.90;39.63;;;7.50;95.20;;;;;;5091408;28;20437;-90
2022/12/23 03:59:16;;;;;;;245.60;44.50;;;7.50;95.20;;;;;;5064446;28;20440;-89
2022/12/23 04:02:07;;;;;;;199.60;43.70;;;7.50;95.30;;;;;;5089878;28;20491;-91
2022/12/23 04:04:50;;;;;;;270.10;45.67;;;7.50;95.30;;;;;;5092041;28;20412;-89
2022/12/23 04:07:28;;;;;;;354.52;47.95;;;7.50;95.20;;;;;;5108949;28;20420;-89
2022/12/23 04:09:54;;;;;;;364.05;48.05;;;7.50;95.10;;;;;;5089863;28;20849;-90
2022/12/23 04:12:23;;;;;;;230.82;42.22;;;7.50;95.10;;;;;;5091616;28;20404;-89
2022/12/23 04:14:52;;;;;;;172.57;40.92;;;7.50;94.90;;;;;;5107230;28;20396;-89
2022/12/23 04:17:18;;;;;;;155.52;38.45;;;7.50;95.00;;;;;;5091448;28;20412;-90
2022/12/23 04:19:44;;;;;;;211.75;44.20;;;7.50;95.10;;;;;;5090797;28;20749;-89
2022/12/23 04:22:12;;;;;;;177.85;40.72;;;7.50;95.10;;;;;;5107813;28;20426;-89
2022/12/23 04:24:38;;;;;;;240.15;45.55;;;7.50;95.10;;;;;;5091433;28;20400;-90
2022/12/23 04:27:04;;;;;;;280.58;45.53;;;7.50;95.10;;;;;;5089791;28;20444;-91
2022/12/23 04:29:30;;;;;;;305.80;45.85;;;7.50;95.20;;;;;;5090799;28;21001;-90
2022/12/23 04:31:56;;;;;;;183.10;40.43;;;7.50;95.00;;;;;;5106622;28;20492;-91
2022/12/23 04:34:21;;;;;;;166.73;40.10;;;7.50;95.00;;;;;;5091284;28;20470;-89
2022/12/23 04:36:47;;;;;;;161.30;39.40;;;7.70;95.10;;;;;;5089735;28;20405;-89
2022/12/23 04:39:13;;;;;;;193.03;42.60;;;7.50;95.00;;;;;;5107654;28;20412;-90
2022/12/23 04:41:38;;;;;;;207.32;44.17;;;7.60;95.00;;;;;;5108111;28;20890;-90
2022/12/23 04:44:04;;;;;;;273.80;42.53;;;7.50;95.10;;;;;;5089267;28;20397;-90
2022/12/23 04:46:30;;;;;;;208.40;43.80;;;7.40;95.10;;;;;;5091070;28;20459;-89
2022/12/23 04:48:55;;;;;;;147.40;35.90;;;7.60;95.20;;;;;;5089656;28;20415;-89
2022/12/23 04:51:22;;;;;;;165.13;40.05;;;7.40;95.20;;;;;;5091037;28;20389;-90
2022/12/23 04:53:47;;;;;;;200.30;42.08;;;7.50;95.20;;;;;;5106296;28;20433;-89
2022/12/23 04:56:13;;;;;;;208.27;41.30;;;7.40;95.20;;;;;;5091287;28;20397;-89
2022/12/23 04:58:38;;;;;;;239.43;41.77;;;7.40;95.20;;;;;;5106587;28;20491;-88
2022/12/23 05:01:10;;;;;;;138.17;36.97;;;7.40;95.20;;;;;;5090469;28;20412;-88
2022/12/23 05:03:37;;;;;;;152.65;38.13;;;7.40;95.30;;;;;;5090013;28;20411;-89
2022/12/23 05:06:03;;;;;;;210.65;42.05;;;7.40;95.20;;;;;;5089087;28;21354;-90
2022/12/23 05:08:29;;;;;;;192.15;40.03;;;7.40;95.50;;;;;;5107855;28;20480;-90
2022/12/23 05:10:55;;;;;;;141.43;36.88;;;7.40;95.40;;;;;;5088599;28;20542;-90
2022/12/23 05:13:21;;;;;;;162.95;37.30;;;7.40;95.20;;;;;;5090735;28;20452;-88
2022/12/23 05:15:51;;;;;;;186.30;39.75;;;7.40;95.20;;;;;;5106561;28;20459;-89
2022/12/23 05:18:17;;;;;;;195.25;37.65;;;7.30;95.00;;;;;;5106735;28;20404;-90
2022/12/23 05:20:43;;;;;;;156.65;37.92;;;7.30;95.00;;;;;;5090614;28;20773;-89
2022/12/23 05:23:09;;;;;;;313.05;38.97;;;7.40;95.00;;;;;;5089448;28;20693;-90
2022/12/23 05:25:38;;;;;;;286.38;39.85;;;7.30;95.00;;;;;;5107371;28;20410;-89
2022/12/23 05:28:06;;;;;;;145.80;33.17;;;7.20;94.90;;;;;;5089125;28;20904;-89
2022/12/23 05:30:32;;;;;;;155.13;35.38;;;7.20;94.90;;;;;;5107021;28;20956;-90
2022/12/23 05:32:58;;;;;;;189.57;34.40;;;7.20;94.90;;;;;;5089278;28;20424;-90
2022/12/23 05:35:26;;;;;;;136.67;32.20;;;7.20;94.90;;;;;;5090591;28;20400;-92
2022/12/23 05:37:52;;;;;;;171.17;33.43;;;7.20;94.90;;;;;;5106634;28;20415;-90
2022/12/23 05:40:18;;;;;;;179.35;36.50;;;7.10;94.80;;;;;;5089247;28;20404;-92
2022/12/23 05:42:44;;;;;;;133.87;32.57;;;7.10;94.90;;;;;;5119612;28;20468;-90
2022/12/23 05:45:09;;;;;;;147.20;30.13;;;7.10;95.00;;;;;;5093938;28;20849;-89
2022/12/23 05:47:35;;;;;;;181.70;39.22;;;7.10;95.00;;;;;;5107213;28;20499;-90
2022/12/23 05:50:02;;;;;;;182.35;39.55;;;7.10;95.10;;;;;;5105694;28;20404;-90
2022/12/23 05:52:27;;;;;;;206.33;37.27;;;7.10;95.20;;;;;;5089970;28;20430;-90
2022/12/23 05:54:53;;;;;;;184.50;32.15;;;7.20;95.20;;;;;;5106462;28;20408;-90
2022/12/23 05:57:19;;;;;;;168.27;32.60;;;7.10;95.10;;;;;;5092301;28;20826;-91
2022/12/23 05:59:45;;;;;;;181.50;33.10;;;7.30;95.10;;;;;;5115682;28;20404;-91
2022/12/23 06:02:10;;;;;;;233.40;35.35;;;7.10;95.00;;;;;;5096885;28;20541;-92
2022/12/23 06:04:36;;;;;;;252.90;35.50;;;7.10;95.10;;;;;;5114317;28;20417;-93
2022/12/23 06:07:01;;;;;;;157.70;35.60;;;7.10;94.90;;;;;;5088866;28;20400;-93
2022/12/23 06:09:27;;;;;;;143.45;32.83;;;7.00;95.00;;;;;;5090589;28;20924;-91
2022/12/23 06:11:53;;;;;;;293.57;39.20;;;7.10;95.00;;;;;;5097872;28;20400;-91
2022/12/23 06:14:18;;;;;;;239.70;35.10;;;7.00;95.00;;;;;;5102086;28;20436;-91
2022/12/23 06:16:44;;;;;;;204.63;30.52;;;7.00;95.10;;;;;;5121975;27;20409;-89
2022/12/23 06:19:10;;;;;;;190.98;32.85;;;7.10;95.00;;;;;;5101558;27;20396;-92
2022/12/23 06:21:36;;;;;;;290.13;36.50;;;6.90;94.90;;;;;;5105949;27;20465;-91
2022/12/23 06:24:01;;;;;;;354.85;34.45;;;6.90;95.00;;;;;;5116367;27;20418;-91
2022/12/23 06:26:27;;;;;;;264.85;31.58;;;6.80;95.00;;;;;;5101925;27;20964;-90
2022/12/23 06:28:53;;;;;;;370.05;36.00;;;6.90;95.00;;;;;;5119325;27;20484;-91
2022/12/23 06:31:18;;;;;;;376.73;35.90;;;6.80;95.10;;;;;;5116485;27;20499;-91
2022/12/23 06:33:44;;;;;;;387.23;35.00;;;6.80;95.30;;;;;;5092488;28;20514;-90
2022/12/23 06:36:10;;;;;;;504.58;41.10;;;6.80;95.30;;;;;;5119249;27;20401;-92
2022/12/23 06:38:36;;;;;;;315.23;34.38;;;6.70;95.50;;;;;;5103214;27;20421;-92
2022/12/23 06:41:05;;;;;;;365.35;35.55;;;6.80;95.50;;;;;;5119968;27;20414;-92
2022/12/23 06:43:30;;;;;;;310.08;33.55;;;6.70;95.60;;;;;;5103282;27;20438;-91
2022/12/23 06:45:56;;;;;;;241.27;31.00;;;6.80;95.60;;;;;;5118312;27;20407;-91
2022/12/23 06:48:21;;;;;;;246.32;30.85;;;6.80;95.70;;;;;;5104592;27;20406;-91
2022/12/23 06:50:50;;;;;;;455.58;38.72;;;6.90;95.80;;;;;;5099348;27;20404;-92
2022/12/23 06:53:16;;;;;;;217.10;29.03;;;6.60;95.70;;;;;;5119309;27;20431;-91
2022/12/23 06:55:41;;;;;;;210.00;28.73;;;6.80;95.70;;;;;;5101147;27;20437;-92
2022/12/23 06:58:07;;;;;;;178.40;27.90;;;6.80;95.70;;;;;;5120224;27;20439;-92
2022/12/23 07:00:33;;;;;;;157.23;27.92;;;6.80;95.70;;;;;;5120407;27;20403;-91
2022/12/23 07:02:59;;;;;;;166.73;29.00;;;6.80;95.60;;;;;;5117863;27;20438;-90
2022/12/23 07:05:24;;;;;;;184.23;29.20;;;6.90;95.70;;;;;;5104979;27;20400;-93
2022/12/23 07:07:50;;;;;;;137.15;27.25;;;7.00;95.70;;;;;;5100113;27;20392;-90
2022/12/23 07:10:16;;;;;;;196.45;30.50;;;6.80;95.70;;;;;;5118899;27;20492;-90
2022/12/23 07:12:41;;;;;;;144.70;28.47;;;6.80;95.70;;;;;;5091270;28;20418;-91
2022/12/23 07:15:08;;;;;;;195.90;31.67;;;6.80;95.70;;;;;;5101469;27;20823;-90
2022/12/23 07:17:34;;;;;;;126.18;25.48;;;6.80;95.60;;;;;;5120728;27;20402;-91
2022/12/23 07:20:00;;;;;;;126.18;26.58;;;7.00;95.70;;;;;;5116751;27;20739;-92
2022/12/23 07:22:25;;;;;;;131.77;25.98;;;6.90;95.90;;;;;;5104160;27;20482;-93
2022/12/23 07:24:51;;;;;;;119.90;27.17;;;6.80;95.50;;;;;;5116058;27;20402;-92
2022/12/23 07:27:17;;;;;;;217.30;31.20;;;6.90;95.50;;;;;;5120742;27;20406;-89
2022/12/23 07:29:42;;;;;;;125.95;28.45;;;6.90;95.60;;;;;;5102650;27;20397;-92
2022/12/23 07:32:08;;;;;;;189.45;28.77;;;6.80;95.60;;;;;;5103994;27;20415;-93
2022/12/23 07:34:34;;;;;;;102.20;26.37;;;6.80;95.60;;;;;;5105899;27;20431;-92
2022/12/23 07:37:00;;;;;;;119.85;27.48;;;6.90;95.70;;;;;;5117779;27;20885;-89
2022/12/23 07:39:26;;;;;;;120.07;27.40;;;6.90;95.70;;;;;;5096191;27;20479;-91
2022/12/23 07:41:52;;;;;;;87.57;25.90;;;6.90;95.60;;;;;;5094199;27;20402;-90
2022/12/23 07:44:17;;;;;;;89.10;26.40;;;6.90;95.70;;;;;;5096071;27;20398;-91
2022/12/23 07:46:43;;;;;;;68.23;23.73;;;6.90;95.70;;;;;;5094206;27;20773;-90
2022/12/23 07:49:09;;;;;;;67.95;24.38;;;6.90;95.70;;;;;;5096383;27;20882;-90
2022/12/23 07:51:34;;;;;;;80.15;25.70;;;6.90;95.70;;;;;;5111610;27;20397;-89
2022/12/23 07:54:00;;;;;;;98.93;26.90;;;6.90;95.70;;;;;;5095357;27;20430;-91
2022/12/23 07:56:26;;;;;;;95.82;28.00;;;7.10;95.80;;;;;;5095202;27;20501;-90
2022/12/23 07:58:52;;;;;;;128.50;30.05;;;6.90;95.70;;;;;;5111402;27;20413;-90
2022/12/23 08:01:19;;;;;;;105.97;28.60;;;6.90;95.70;;;;;;5112745;27;20435;-90
2022/12/23 08:03:45;;;;;;;139.93;30.70;;;6.90;95.70;;;;;;5093182;27;20399;-90
2022/12/23 08:06:14;;;;;;;93.90;27.77;;;6.90;95.70;;;;;;5095753;27;20503;-91
2022/12/23 08:08:42;;;;;;;111.60;28.27;;;7.00;95.70;;;;;;5111038;27;20478;-91
2022/12/23 08:11:09;;;;;;;93.05;24.95;;;7.00;95.70;;;;;;5112659;27;20398;-90
2022/12/23 08:13:37;;;;;;;78.90;25.90;;;7.00;95.60;;;;;;5094580;27;20766;-90
2022/12/23 08:16:04;;;;;;;99.20;27.92;;;7.30;96.10;;;;;;5094025;27;20413;-91
2022/12/23 08:18:32;;;;;;;116.07;28.35;;;7.00;95.70;;;;;;5112610;27;20402;-90
2022/12/23 08:21:04;;;;;;;81.07;24.43;;;7.10;95.70;;;;;;5110548;27;20433;-91
2022/12/23 08:23:31;;;;;;;94.00;25.60;;;7.10;95.60;;;;;;5112567;27;20438;-90
2022/12/23 08:26:05;;;;;;;62.92;23.45;;;7.10;95.60;;;;;;5110852;27;20490;-90
2022/12/23 08:28:31;;;;;;;84.03;25.08;;;7.20;95.60;;;;;;5095066;27;20985;-89
2022/12/23 08:31:16;;;;;;;78.18;23.65;;;7.20;95.60;;;;;;5111217;27;20406;-90
2022/12/23 08:33:44;;;;;;;59.55;21.85;;;7.20;95.50;;;;;;5092269;27;20431;-90
2022/12/23 08:36:20;;;;;;;64.57;23.58;;;7.20;95.60;;;;;;5094567;27;20395;-89
2022/12/23 08:38:45;;;;;;;61.55;22.83;;;7.20;95.60;;;;;;5092641;27;20406;-90
2022/12/23 08:41:34;;;;;;;57.10;22.87;;;7.30;95.60;;;;;;5095216;27;20512;-90
2022/12/23 08:44:00;;;;;;;60.67;23.10;;;7.30;95.70;;;;;;5093997;27;20501;-89
2022/12/23 08:46:26;;;;;;;70.90;25.27;;;7.30;95.70;;;;;;5093741;27;20501;-89
2022/12/23 08:48:52;;;;;;;54.55;23.17;;;7.30;95.70;;;;;;5094843;27;20387;-89
2022/12/23 08:51:20;;;;;;;48.67;20.63;;;7.40;95.70;;;;;;5109548;27;20397;-90
2022/12/23 08:53:47;;;;;;;48.95;20.02;;;7.60;95.70;;;;;;5094635;27;20465;-89
2022/12/23 08:56:19;;;;;;;53.42;20.38;;;7.40;95.60;;;;;;5092772;27;20873;-89
2022/12/23 08:58:46;;;;;;;50.07;19.40;;;7.40;95.70;;;;;;5094593;27;20781;-91
2022/12/23 09:01:14;;;;;;;56.72;19.60;;;7.40;95.70;;;;;;5110834;27;20409;-89
2022/12/23 09:03:41;;;;;;;48.47;18.70;;;7.50;95.60;;;;;;5110388;27;20453;-90
2022/12/23 09:06:27;;;;;;;54.10;20.08;;;7.60;95.70;;;;;;5094384;27;20410;-90
2022/12/23 09:08:54;;;;;;;53.50;19.57;;;7.50;95.60;;;;;;5109571;27;20445;-89
2022/12/23 09:11:23;;;;;;;52.72;19.98;;;7.60;95.60;;;;;;5111581;27;20818;-89
2022/12/23 09:13:49;;;;;;;54.00;20.05;;;7.60;95.60;;;;;;5109321;27;20425;-90
2022/12/23 09:16:15;;;;;;;45.22;17.98;;;7.70;95.50;;;;;;5094416;27;20399;-89
2022/12/23 09:18:41;;;;;;;48.65;18.42;;;7.70;95.50;;;;;;5093678;27;20406;-89
2022/12/23 09:21:10;;;;;;;46.75;19.55;;;7.80;95.50;;;;;;5092977;27;20410;-90
2022/12/23 09:23:36;;;;;;;47.00;20.67;;;7.90;95.40;;;;;;5111738;27;20794;-90
2022/12/23 09:26:06;;;;;;;43.13;20.38;;;7.80;95.30;;;;;;5091912;27;20528;-89
2022/12/23 09:28:32;;;;;;;43.28;20.35;;;7.90;95.30;;;;;;5111671;28;20762;-91
2022/12/23 09:31:04;;;;;;;43.50;20.10;;;7.90;95.20;;;;;;5091932;28;20391;-89
2022/12/23 09:33:30;;;;;;;36.25;17.13;;;7.90;95.20;;;;;;5110578;28;20805;-89
2022/12/23 09:35:59;;;;;;;40.63;16.92;;;8.00;95.20;;;;;;5093665;28;20406;-89
2022/12/23 09:38:24;;;;;;;41.60;17.38;;;8.20;95.20;;;;;;5092677;28;20911;-90
2022/12/23 09:40:50;;;;;;;34.73;15.53;;;8.10;95.10;;;;;;5110866;28;20402;-90
2022/12/23 09:43:49;;;;;;;42.73;17.17;;;8.10;95.00;;;;;;5090552;28;20402;-89
2022/12/23 09:46:21;;;;;;;37.95;17.27;;;8.10;95.10;;;;;;5093290;28;20395;-89
2022/12/23 09:49:04;;;;;;;41.67;18.45;;;8.40;95.10;;;;;;5092174;27;20402;-90
2022/12/23 09:51:32;;;;;;;33.22;17.55;;;8.30;95.00;;;;;;5095855;27;20877;-90
2022/12/23 09:54:24;;;;;;;35.53;17.27;;;8.40;94.90;;;;;;5097327;27;20462;-89
2022/12/23 09:57:02;;;;;;;27.10;15.43;;;8.40;94.80;;;;;;5101384;27;20471;-89
2022/12/23 09:59:46;;;;;;;26.25;15.48;;;8.40;94.60;;;;;;5098018;27;20406;-90
2022/12/23 10:02:43;;;;;;;20.48;11.15;;;8.40;94.60;;;;;;5097741;27;20494;-90
2022/12/23 10:05:48;;;;;;;24.38;12.40;;;8.50;94.50;;;;;;5096080;27;20416;-89
2022/12/23 10:08:30;;;;;;;17.08;9.82;;;8.50;94.80;;;;;;5047749;27;20909;-90
2022/12/23 10:11:05;;;;;;;19.08;10.63;;;8.50;94.30;;;;;;5103345;27;20453;-91
2022/12/23 10:13:37;;;;;;;18.65;10.25;;;8.50;94.40;;;;;;5108273;27;20948;-90
2022/12/23 10:16:14;;;;;;;17.27;9.30;;;8.50;94.40;;;;;;5125418;27;20421;-90
2022/12/23 10:19:14;;;;;;;14.13;7.00;;;8.50;94.40;;;;;;5111216;27;20404;-90
2022/12/23 10:21:59;;;;;;;12.90;7.20;;;8.60;94.30;;;;;;5116960;27;20401;-91
2022/12/23 10:24:31;;;;;;;14.45;7.03;;;8.60;94.20;;;;;;5135103;27;20400;-91
2022/12/23 10:27:03;;;;;;;15.90;7.68;;;8.60;94.20;;;;;;5115812;27;20403;-90
2022/12/23 10:29:33;;;;;;;18.73;9.10;;;8.60;94.10;;;;;;5118261;27;20409;-92
2022/12/23 10:32:24;;;;;;;20.35;10.90;;;8.50;94.10;;;;;;5116873;27;20405;-91
2022/12/23 10:35:25;;;;;;;26.08;14.35;;;8.50;94.20;;;;;;5116013;27;20421;-91
2022/12/23 10:37:57;;;;;;;35.00;17.85;;;8.60;94.30;;;;;;5085511;27;20417;-90
2022/12/23 10:40:35;;;;;;;37.97;18.77;;;8.50;94.10;;;;;;5133539;27;20429;-89
2022/12/23 10:43:34;;;;;;;32.60;16.65;;;8.50;94.50;;;;;;5116658;27;20417;-90
2022/12/23 10:46:21;;;;;;;37.47;19.03;;;8.50;94.30;;;;;;5117530;27;20413;-90
2022/12/23 10:49:03;;;;;;;36.10;18.00;;;8.50;94.30;;;;;;5116326;27;20413;-89
2022/12/23 10:51:50;;;;;;;40.25;18.60;;;8.50;94.30;;;;;;5133023;27;21034;-90
2022/12/23 10:54:24;;;;;;;38.27;18.07;;;8.40;94.40;;;;;;5134610;27;20455;-90
2022/12/23 10:56:50;;;;;;;42.75;20.35;;;8.70;94.50;;;;;;5132499;27;20499;-90
2022/12/23 10:59:24;;;;;;;41.30;20.90;;;8.40;94.50;;;;;;5117236;27;20958;-90
2022/12/23 11:02:05;;;;;;;44.23;21.27;;;8.50;94.50;;;;;;5132231;27;20736;-90
2022/12/23 11:04:35;;;;;;;47.30;21.10;;;8.50;94.50;;;;;;5117058;27;20443;-91
2022/12/23 11:07:02;;;;;;;46.33;20.77;;;8.50;94.60;;;;;;5116676;27;20413;-91
2022/12/23 11:09:39;;;;;;;39.40;17.88;;;8.50;94.70;;;;;;5115311;27;20397;-90
2022/12/23 11:12:07;;;;;;;46.40;20.00;;;8.50;94.60;;;;;;5134512;27;20427;-90
2022/12/23 11:14:51;;;;;;;52.03;22.15;;;8.60;94.50;;;;;;5125669;27;20422;-90
2022/12/23 11:17:23;;;;;;;51.40;21.63;;;8.60;94.60;;;;;;5096348;27;20453;-92
2022/12/23 11:20:09;;;;;;;45.85;20.70;;;9.00;94.60;;;;;;5095986;27;20410;-90
2022/12/23 11:22:44;;;;;;;59.45;23.75;;;8.80;94.40;;;;;;5076914;27;20438;-90
2022/12/23 11:25:31;;;;;;;59.47;22.50;;;8.70;94.40;;;;;;5096582;27;20391;-90
2022/12/23 11:28:04;;;;;;;57.47;23.23;;;8.70;94.30;;;;;;5108600;27;20418;-90
2022/12/23 11:30:34;;;;;;;56.38;21.45;;;8.80;94.30;;;;;;5112756;27;20402;-91
2022/12/23 11:33:00;;;;;;;55.72;21.83;;;8.80;94.20;;;;;;5112641;27;20498;-90
2022/12/23 11:35:32;;;;;;;49.15;20.50;;;8.80;94.10;;;;;;5111462;27;20511;-90
2022/12/23 11:38:00;;;;;;;55.63;21.65;;;8.80;94.00;;;;;;5096030;27;20446;-91
2022/12/23 11:40:29;;;;;;;58.72;21.98;;;8.80;94.00;;;;;;5094132;27;20897;-90
2022/12/23 11:43:06;;;;;;;51.78;20.95;;;8.80;94.10;;;;;;5095718;27;20810;-90
2022/12/23 11:45:36;;;;;;;51.53;20.67;;;9.00;94.10;;;;;;5094666;27;20410;-91
2022/12/23 11:48:24;;;;;;;51.72;20.50;;;8.70;94.10;;;;;;5111784;27;20840;-91
2022/12/23 11:51:01;;;;;;;48.92;19.95;;;8.70;94.10;;;;;;5096057;27;20420;-90
2022/12/23 11:53:27;;;;;;;43.85;19.17;;;8.70;94.20;;;;;;5094031;27;20491;-91
2022/12/23 11:56:01;;;;;;;43.28;19.38;;;8.70;94.00;;;;;;5096145;27;20402;-91
2022/12/23 11:58:29;;;;;;;45.50;20.33;;;8.70;94.00;;;;;;5110574;27;20789;-90
2022/12/23 12:00:58;;;;;;;47.85;21.00;;;8.70;94.00;;;;;;5094788;27;20398;-92
2022/12/23 12:03:33;;;;;;;53.28;21.27;;;8.70;94.00;;;;;;5098673;27;20464;-91
2022/12/23 12:06:04;;;;;;;52.03;21.55;;;8.80;94.10;;;;;;5097494;27;20391;-91
2022/12/23 12:08:36;;;;;;;47.40;20.98;;;8.60;94.10;;;;;;5094602;27;20411;-91
2022/12/23 12:11:09;;;;;;;44.85;21.30;;;8.60;94.20;;;;;;5104650;27;20402;-92
2022/12/23 12:13:41;;;;;;;46.33;20.65;;;8.50;94.10;;;;;;5093912;27;20515;-92
2022/12/23 12:16:15;;;;;;;44.75;21.25;;;8.70;94.10;;;;;;5095109;27;21064;-92
2022/12/23 12:18:43;;;;;;;44.65;22.00;;;8.60;94.10;;;;;;5093820;27;20403;-92
2022/12/23 12:21:21;;;;;;;51.30;22.23;;;8.50;94.10;;;;;;5094944;27;20398;-92
2022/12/23 12:24:03;;;;;;;50.13;23.25;;;8.70;94.00;;;;;;5093030;27;21094;-93
2022/12/23 12:26:33;;;;;;;46.55;22.08;;;8.70;94.20;;;;;;5112467;27;20407;-93
2022/12/23 12:29:21;;;;;;;49.03;23.33;;;8.50;94.10;;;;;;5111556;27;20777;-93
2022/12/23 12:31:53;;;;;;;53.65;23.25;;;8.50;94.20;;;;;;5110347;27;20428;-90
2022/12/23 12:34:56;;;;;;;46.03;21.83;;;8.50;94.20;;;;;;5093191;27;20948;-90
2022/12/23 12:37:47;;;;;;;52.05;23.27;;;8.60;94.20;;;;;;5108938;27;20414;-90
2022/12/23 12:40:12;;;;;;;50.22;22.88;;;8.50;94.20;;;;;;5092340;27;20820;-91
2022/12/23 12:42:51;;;;;;;44.67;21.70;;;8.50;94.20;;;;;;5110413;27;20472;-89
2022/12/23 12:45:20;;;;;;;47.22;22.65;;;8.50;94.20;;;;;;5091625;27;20494;-92
2022/12/23 12:48:24;;;;;;;53.83;24.53;;;8.50;94.30;;;;;;5093635;27;20545;-90
2022/12/23 12:51:17;;;;;;;54.42;24.95;;;8.50;94.40;;;;;;5093059;27;20407;-91
2022/12/23 12:53:58;;;;;;;48.22;23.20;;;8.50;94.40;;;;;;5108118;27;20786;-91
2022/12/23 12:56:30;;;;;;;42.20;21.17;;;8.50;94.30;;;;;;5093225;27;20411;-91
2022/12/23 12:58:55;;;;;;;44.28;21.33;;;8.50;94.20;;;;;;5109542;27;20395;-91
2022/12/23 13:01:41;;;;;;;50.05;22.27;;;8.60;94.10;;;;;;5092664;27;20405;-91
2022/12/23 13:04:44;;;;;;;47.42;20.90;;;8.50;94.20;;;;;;5093387;27;20415;-90
2022/12/23 13:07:31;;;;;;;49.95;22.15;;;8.50;94.40;;;;;;5091638;27;20407;-91
2022/12/23 13:10:09;;;;;;;46.63;21.95;;;8.60;94.30;;;;;;5092950;27;20418;-91
2022/12/23 13:12:39;;;;;;;45.92;21.08;;;8.60;94.20;;;;;;5093048;27;20403;-91
2022/12/23 13:15:26;;;;;;;46.03;21.23;;;8.60;94.30;;;;;;5108178;27;20555;-91
2022/12/23 13:18:20;;;;;;;44.70;20.08;;;8.60;94.20;;;;;;5110112;27;20442;-90
2022/12/23 13:21:17;;;;;;;48.95;21.10;;;8.60;94.30;;;;;;5108526;27;20398;-91